Time;durP1;ratioP1;P1;durP2;ratioP2;P2;SDS_P1;SDS_P2;PMS_P1;PMS_P2;Temp;Humidity;BMP_temperature;BMP_pressure;BME280_temperature;BME280_humidity;BME280_pressure;Samples;Min_cycle;Max_cycle;Signal;HPM_P1;HPM_P2
2022/04/19 00:01:29;;;;;;;;;;;14.60;74.20;;;;;;4418748;32;42609;-79
2022/04/19 00:03:57;;;;;;;;;;;14.60;74.80;;;;;;4418744;32;43796;-79
2022/04/19 00:06:23;;;;;;;;;;;14.60;74.40;;;;;;4419859;32;42279;-79
2022/04/19 00:08:51;;;;;;;;;;;14.60;72.60;;;;;;4418738;32;44967;-79
2022/04/19 00:11:18;;;;;;;;;;;14.50;74.10;;;;;;4420568;32;43097;-79
2022/04/19 00:13:45;;;;;;;;;;;14.50;74.90;;;;;;4423757;32;20003;-79
2022/04/19 00:16:14;;;;;;;;;;;14.60;75.50;;;;;;4421775;32;44972;-79
2022/04/19 00:18:41;;;;;;;;;;;14.60;76.10;;;;;;4423140;32;43914;-79
2022/04/19 00:21:08;;;;;;;;;;;14.60;74.70;;;;;;4422916;32;43190;-79
2022/04/19 00:23:35;;;;;;;;;;;14.60;75.50;;;;;;4422805;32;44155;-79
2022/04/19 00:26:03;;;;;;;;;;;14.50;74.40;;;;;;4422883;32;43201;-79
2022/04/19 00:28:30;;;;;;;;;;;14.50;72.30;;;;;;4421673;32;44032;-79
2022/04/19 00:30:58;;;;;;;;;;;14.50;72.90;;;;;;4421906;32;43776;-79
2022/04/19 00:33:26;;;;;;;;;;;14.50;72.60;;;;;;4422802;32;43115;-79
2022/04/19 00:35:53;;;;;;;;;;;14.40;72.70;;;;;;4422027;32;42996;-79
2022/04/19 00:38:20;;;;;;;;;;;14.40;72.50;;;;;;4421959;32;43307;-79
2022/04/19 00:40:47;;;;;;;;;;;14.40;72.00;;;;;;4422622;32;44241;-79
2022/04/19 00:43:16;;;;;;;;;;;14.40;74.40;;;;;;4422518;32;45793;-79
2022/04/19 00:45:43;;;;;;;;;;;14.40;74.70;;;;;;4421991;32;43840;-79
2022/04/19 00:48:10;;;;;;;;;;;14.50;75.50;;;;;;4421418;32;44242;-79
2022/04/19 00:50:37;;;;;;;;;;;14.40;75.30;;;;;;4421853;32;43490;-79
2022/04/19 00:53:05;;;;;;;;;;;14.40;75.50;;;;;;4421262;32;44313;-79
2022/04/19 00:55:32;;;;;;;;;;;14.50;75.70;;;;;;4422458;32;45117;-79
2022/04/19 00:57:59;;;;;;;;;;;14.40;73.80;;;;;;4423102;32;43517;-79
2022/04/19 01:00:26;;;;;;;;;;;14.40;75.10;;;;;;4421450;32;44305;-79
2022/04/19 01:02:55;;;;;;;;;;;14.30;75.70;;;;;;4422685;32;44230;-79
2022/04/19 01:05:24;;;;;;;;;;;14.40;75.70;;;;;;4422706;32;43418;-79
2022/04/19 01:07:51;;;;;;;;;;;14.40;75.00;;;;;;4421234;32;43337;-79
2022/04/19 01:10:18;;;;;;;;;;;14.30;75.40;;;;;;4421654;32;45925;-79
2022/04/19 01:15:32;;;;;;;;;;;14.30;76.30;;;;;;4422500;32;42615;-79
2022/04/19 01:18:01;;;;;;;;;;;14.30;77.00;;;;;;4422187;32;45084;-79
2022/04/19 01:20:29;;;;;;;;;;;14.30;77.10;;;;;;4421590;32;44930;-79
2022/04/19 01:22:56;;;;;;;;;;;14.30;77.00;;;;;;4421216;32;43364;-79
2022/04/19 01:25:23;;;;;;;;;;;14.30;76.50;;;;;;4422181;32;45276;-79
2022/04/19 01:27:50;;;;;;;;;;;14.20;76.80;;;;;;4421171;32;44080;-79
2022/04/19 01:30:18;;;;;;;;;;;14.20;76.70;;;;;;4420688;32;45742;-79
2022/04/19 01:32:45;;;;;;;;;;;14.20;76.10;;;;;;4421158;32;43604;-79
2022/04/19 01:35:13;;;;;;;;;;;14.20;77.20;;;;;;4421930;32;43925;-79
2022/04/19 01:37:42;;;;;;;;;;;14.20;77.40;;;;;;4421986;32;42700;-79
2022/04/19 01:40:18;;;;;;;;;;;14.20;77.50;;;;;;4420841;32;42634;-79
2022/04/19 01:42:53;;;;;;;;;;;14.20;77.80;;;;;;4421294;32;44144;-79
2022/04/19 01:45:22;;;;;;;;;;;14.20;78.00;;;;;;4420618;32;43651;-79
2022/04/19 01:47:49;;;;;;;;;;;14.20;78.00;;;;;;4422029;32;46121;-79
2022/04/19 01:50:17;;;;;;;;;;;14.20;78.10;;;;;;4420755;32;43048;-79
2022/04/19 01:52:45;;;;;;;;;;;14.20;78.30;;;;;;4420417;32;44533;-79
2022/04/19 01:55:14;;;;;;;;;;;14.10;78.00;;;;;;4421856;32;43686;-79
2022/04/19 01:57:46;;;;;;;;;;;14.10;77.90;;;;;;4421861;32;44228;-79
2022/04/19 02:00:13;;;;;;;;;;;14.10;77.30;;;;;;4421583;32;44112;-79
2022/04/19 02:02:43;;;;;;;;;;;14.00;77.90;;;;;;4421356;32;43537;-79
2022/04/19 02:05:10;;;;;;;;;;;14.00;77.70;;;;;;4421573;32;44143;-79
2022/04/19 02:07:42;;;;;;;;;;;14.00;78.20;;;;;;4420951;32;43586;-79
2022/04/19 02:10:10;;;;;;;;;;;14.00;78.60;;;;;;4420356;32;42507;-79
2022/04/19 02:12:38;;;;;;;;;;;13.90;78.70;;;;;;4421293;32;43344;-79
2022/04/19 02:15:06;;;;;;;;;;;14.00;78.60;;;;;;4421237;32;20408;-79
2022/04/19 02:17:33;;;;;;;;;;;13.90;78.60;;;;;;4421341;32;45077;-79
2022/04/19 02:20:03;;;;;;;;;;;13.90;78.30;;;;;;4421156;32;43901;-79
2022/04/19 02:22:31;;;;;;;;;;;13.90;78.50;;;;;;4421505;32;43227;-80
2022/04/19 02:24:59;;;;;;;;;;;13.90;78.20;;;;;;4420452;32;43414;-79
2022/04/19 02:27:28;;;;;;;;;;;13.90;78.10;;;;;;4420061;32;43283;-79
2022/04/19 02:29:55;;;;;;;;;;;13.90;78.00;;;;;;4421187;32;42318;-79
2022/04/19 02:32:25;;;;;;;;;;;13.90;78.40;;;;;;4421326;32;43793;-79
2022/04/19 02:34:52;;;;;;;;;;;13.90;77.90;;;;;;4421025;32;43938;-79
2022/04/19 02:37:20;;;;;;;;;;;13.80;78.60;;;;;;4420832;32;46048;-79
2022/04/19 02:39:48;;;;;;;;;;;13.80;78.60;;;;;;4419719;32;43186;-79
2022/04/19 02:42:15;;;;;;;;;;;13.80;78.40;;;;;;4420265;32;43714;-79
2022/04/19 02:44:42;;;;;;;;;;;13.80;78.80;;;;;;4421092;32;44186;-79
2022/04/19 02:47:09;;;;;;;;;;;13.70;78.50;;;;;;4421344;32;43886;-79
2022/04/19 02:49:37;;;;;;;;;;;13.70;78.80;;;;;;4420757;32;43907;-79
2022/04/19 02:52:04;;;;;;;;;;;13.70;78.60;;;;;;4419608;32;43818;-79
2022/04/19 02:54:31;;;;;;;;;;;13.70;78.60;;;;;;4419561;32;42928;-79
2022/04/19 02:56:58;;;;;;;;;;;13.70;78.80;;;;;;4421087;32;43874;-79
2022/04/19 02:59:25;;;;;;;;;;;13.70;78.20;;;;;;4420683;32;44012;-79
2022/04/19 03:01:52;;;;;;;;;;;13.70;78.80;;;;;;4420615;32;45047;-79
2022/04/19 03:04:20;;;;;;;;;;;13.60;78.50;;;;;;4421013;32;44639;-79
2022/04/19 03:06:47;;;;;;;;;;;13.60;78.50;;;;;;4419775;32;45994;-79
2022/04/19 03:09:14;;;;;;;;;;;13.60;78.80;;;;;;4420911;32;44254;-79
2022/04/19 03:11:42;;;;;;;;;;;13.60;78.90;;;;;;4421106;32;43536;-80
2022/04/19 03:14:10;;;;;;;;;;;13.60;78.80;;;;;;4419549;32;43238;-79
2022/04/19 03:16:37;;;;;;;;;;;13.60;78.80;;;;;;4420627;32;43774;-79
2022/04/19 03:19:04;;;;;;;;;;;13.60;78.80;;;;;;4419649;32;42687;-79
2022/04/19 03:21:31;;;;;;;;;;;13.50;77.90;;;;;;4420655;32;44508;-79
2022/04/19 03:29:29;;;;;;;;;;;13.40;79.10;;;;;;4420221;32;42700;-79
2022/04/19 03:31:56;;;;;;;;;;;13.30;78.80;;;;;;4420588;32;43117;-79
2022/04/19 03:34:23;;;;;;;;;;;13.30;78.90;;;;;;4420225;32;42820;-79
2022/04/19 03:36:52;;;;;;;;;;;13.30;78.80;;;;;;4420711;32;44594;-79
2022/04/19 03:39:19;;;;;;;;;;;13.30;79.00;;;;;;4420533;32;44241;-79
2022/04/19 03:41:46;;;;;;;;;;;13.20;78.40;;;;;;4420349;32;43766;-79
2022/04/19 03:44:13;;;;;;;;;;;13.30;79.10;;;;;;4420306;32;44681;-80
2022/04/19 03:49:27;;;;;;;;;;;13.30;79.40;;;;;;4420040;32;42947;-79
2022/04/19 03:51:54;;;;;;;;;;;13.30;80.10;;;;;;4419113;32;45231;-79
2022/04/19 03:54:21;;;;;;;;;;;13.30;80.20;;;;;;4419965;32;43091;-79
2022/04/19 03:56:48;;;;;;;;;;;13.30;80.40;;;;;;4419197;32;44105;-79
2022/04/19 03:59:15;;;;;;;;;;;13.30;80.40;;;;;;4418877;32;42933;-79
2022/04/19 04:01:42;;;;;;;;;;;13.20;79.70;;;;;;4419718;32;44334;-79
2022/04/19 04:04:09;;;;;;;;;;;13.20;79.80;;;;;;4419450;32;43584;-79
2022/04/19 04:06:37;;;;;;;;;;;13.20;80.00;;;;;;4420426;32;44238;-80
2022/04/19 04:09:04;;;;;;;;;;;13.20;80.20;;;;;;4419325;32;44106;-80
2022/04/19 04:11:32;;;;;;;;;;;13.20;80.20;;;;;;4419204;32;43926;-79
2022/04/19 04:13:59;;;;;;;;;;;13.10;80.30;;;;;;4419733;32;43294;-79
2022/04/19 04:16:26;;;;;;;;;;;13.10;80.30;;;;;;4419574;32;20000;-79
2022/04/19 04:18:53;;;;;;;;;;;13.10;80.50;;;;;;4419738;32;43871;-79
2022/04/19 04:21:20;;;;;;;;;;;13.10;80.60;;;;;;4419019;32;42591;-79
2022/04/19 04:23:47;;;;;;;;;;;13.00;80.20;;;;;;4420242;32;45101;-79
2022/04/19 04:26:14;;;;;;;;;;;13.00;80.60;;;;;;4418994;32;44092;-79
2022/04/19 04:28:41;;;;;;;;;;;13.00;80.80;;;;;;4419811;32;43805;-79
2022/04/19 04:31:08;;;;;;;;;;;13.00;80.90;;;;;;4418900;32;43801;-80
2022/04/19 04:33:35;;;;;;;;;;;12.90;80.10;;;;;;4419767;32;42875;-79
2022/04/19 04:36:02;;;;;;;;;;;12.90;80.90;;;;;;4419656;32;46083;-79
2022/04/19 04:38:29;;;;;;;;;;;12.90;81.00;;;;;;4419622;32;44259;-79
2022/04/19 04:40:56;;;;;;;;;;;12.90;80.60;;;;;;4419953;32;43522;-79
2022/04/19 04:43:23;;;;;;;;;;;12.90;80.70;;;;;;4419103;32;43260;-79
2022/04/19 04:49:35;;;;;;;;;;;12.90;80.50;;;;;;4419069;32;44036;-79
2022/04/19 04:51:23;;;;;;;;;;;12.90;80.80;;;;;;4420088;32;43440;-79
2022/04/19 04:53:50;;;;;;;;;;;12.90;80.90;;;;;;4420175;32;43283;-79
2022/04/19 04:56:17;;;;;;;;;;;12.90;81.00;;;;;;4420370;32;45741;-79
2022/04/19 04:58:44;;;;;;;;;;;12.90;81.30;;;;;;4421489;32;43311;-79
2022/04/19 05:01:11;;;;;;;;;;;12.90;81.10;;;;;;4421636;32;44221;-79
2022/04/19 05:03:38;;;;;;;;;;;12.80;81.00;;;;;;4421797;32;43530;-79
2022/04/19 05:06:05;;;;;;;;;;;12.80;80.70;;;;;;4421185;32;42765;-79
2022/04/19 05:08:32;;;;;;;;;;;12.80;81.00;;;;;;4421634;32;45555;-79
2022/04/19 05:10:59;;;;;;;;;;;12.80;81.20;;;;;;4422370;32;42847;-79
2022/04/19 05:13:26;;;;;;;;;;;12.80;81.20;;;;;;4422731;32;46073;-79
2022/04/19 05:15:53;;;;;;;;;;;12.70;81.20;;;;;;4422719;32;43254;-79
2022/04/19 05:18:21;;;;;;;;;;;12.70;81.80;;;;;;4420909;32;45653;-79
2022/04/19 05:20:48;;;;;;;;;;;12.70;81.90;;;;;;4422879;32;43205;-79
2022/04/19 05:23:14;;;;;;;;;;;12.70;81.60;;;;;;4421216;32;43197;-79
2022/04/19 05:25:42;;;;;;;;;;;12.70;81.30;;;;;;4421500;32;43968;-79
2022/04/19 05:28:09;;;;;;;;;;;12.70;82.00;;;;;;4422321;32;43492;-79
2022/04/19 05:30:36;;;;;;;;;;;12.70;81.60;;;;;;4421249;32;43862;-79
2022/04/19 05:33:03;;;;;;;;;;;12.60;81.60;;;;;;4420781;32;42692;-79
2022/04/19 05:35:30;;;;;;;;;;;12.60;81.90;;;;;;4420799;32;42602;-79
2022/04/19 05:37:58;;;;;;;;;;;12.60;82.30;;;;;;4420786;32;44915;-79
2022/04/19 05:40:25;;;;;;;;;;;12.60;82.50;;;;;;4421967;32;44089;-79
2022/04/19 05:42:52;;;;;;;;;;;12.70;82.60;;;;;;4422130;32;43944;-79
2022/04/19 05:45:19;;;;;;;;;;;12.70;82.30;;;;;;4420940;32;43447;-79
2022/04/19 05:47:46;;;;;;;;;;;12.70;82.30;;;;;;4421023;32;44593;-79
2022/04/19 05:50:13;;;;;;;;;;;12.70;82.90;;;;;;4422126;32;44232;-79
2022/04/19 05:52:40;;;;;;;;;;;12.60;82.60;;;;;;4421592;32;43197;-79
2022/04/19 05:55:08;;;;;;;;;;;12.70;82.80;;;;;;4421888;32;42258;-79
2022/04/19 05:57:35;;;;;;;;;;;12.60;83.30;;;;;;4420947;32;43582;-79
2022/04/19 06:00:02;;;;;;;;;;;12.60;83.50;;;;;;4422028;32;43711;-79
2022/04/19 06:05:15;;;;;;;;;;;12.60;84.10;;;;;;4422112;32;43794;-79
2022/04/19 06:07:43;;;;;;;;;;;12.60;83.60;;;;;;4421545;32;44342;-79
2022/04/19 06:10:10;;;;;;;;;;;12.60;83.80;;;;;;4421055;32;42728;-79
2022/04/19 06:12:38;;;;;;;;;;;12.60;84.20;;;;;;4421982;32;43946;-79
2022/04/19 06:15:05;;;;;;;;;;;12.60;83.80;;;;;;4420321;32;44985;-79
2022/04/19 06:17:35;;;;;;;;;;;12.60;83.40;;;;;;4421394;32;20392;-79
2022/04/19 06:20:04;;;;;;;;;;;12.60;83.40;;;;;;4421604;32;46164;-79
2022/04/19 06:22:31;;;;;;;;;;;12.70;83.60;;;;;;4421407;32;43474;-79
2022/04/19 06:24:59;;;;;;;;;;;12.70;84.40;;;;;;4420419;32;43519;-79
2022/04/19 06:27:26;;;;;;;;;;;12.60;83.60;;;;;;4419940;32;45035;-79
2022/04/19 06:29:53;;;;;;;;;;;12.70;84.20;;;;;;4421104;32;43285;-79
2022/04/19 06:32:20;;;;;;;;;;;12.70;84.60;;;;;;4421132;32;44547;-79
2022/04/19 06:34:48;;;;;;;;;;;12.70;85.70;;;;;;4421588;32;43846;-79
2022/04/19 06:37:15;;;;;;;;;;;12.70;85.50;;;;;;4421511;32;44313;-79
2022/04/19 06:39:42;;;;;;;;;;;12.70;85.00;;;;;;4421261;32;43589;-79
2022/04/19 06:42:09;;;;;;;;;;;12.70;85.30;;;;;;4420152;32;44311;-79
2022/04/19 06:44:36;;;;;;;;;;;12.70;85.40;;;;;;4419817;32;43270;-79
2022/04/19 06:47:04;;;;;;;;;;;12.80;86.30;;;;;;4420078;32;42265;-79
2022/04/19 06:49:32;;;;;;;;;;;12.80;86.50;;;;;;4419632;32;43322;-79
2022/04/19 06:51:59;;;;;;;;;;;12.80;87.30;;;;;;4421237;32;43991;-79
2022/04/19 06:54:26;;;;;;;;;;;12.80;87.90;;;;;;4420656;32;44046;-79
2022/04/19 06:56:53;;;;;;;;;;;12.80;88.30;;;;;;4420017;32;44158;-79
2022/04/19 06:59:21;;;;;;;;;;;12.80;89.70;;;;;;4420644;32;44701;-79
2022/04/19 07:01:48;;;;;;;;;;;12.80;90.20;;;;;;4420317;32;44139;-79
2022/04/19 07:04:15;;;;;;;;;;;12.80;90.10;;;;;;4420963;32;45163;-79
2022/04/19 07:06:42;;;;;;;;;;;12.90;90.00;;;;;;4420987;32;43824;-79
2022/04/19 07:09:09;;;;;;;;;;;12.90;89.50;;;;;;4420389;32;44933;-79
2022/04/19 07:11:37;;;;;;;;;;;12.90;88.90;;;;;;4420491;32;43951;-78
2022/04/19 07:14:04;;;;;;;;;;;12.90;87.90;;;;;;4419812;32;43372;-79
2022/04/19 07:16:32;;;;;;;;;;;12.90;86.90;;;;;;4419767;32;44268;-79
2022/04/19 07:18:59;;;;;;;;;;;12.90;87.50;;;;;;4419792;32;43184;-79
2022/04/19 07:27:24;;;;;;;;;;;12.90;85.70;;;;;;4420928;32;45035;-79
2022/04/19 07:29:51;;;;;;;;;;;12.80;86.50;;;;;;4419198;32;42812;-79
2022/04/19 07:32:18;;;;;;;;;;;12.90;86.60;;;;;;4419446;32;44583;-79
2022/04/19 07:34:45;;;;;;;;;;;12.90;87.00;;;;;;4420155;32;44909;-79
2022/04/19 07:37:12;;;;;;;;;;;12.90;86.50;;;;;;4419491;32;46102;-79
2022/04/19 07:39:39;;;;;;;;;;;12.90;87.40;;;;;;4419606;32;43514;-79
2022/04/19 07:42:06;;;;;;;;;;;12.90;88.10;;;;;;4419157;32;43471;-79
2022/04/19 07:44:33;;;;;;;;;;;12.90;89.10;;;;;;4419371;32;43699;-79
2022/04/19 07:47:00;;;;;;;;;;;13.00;88.90;;;;;;4420380;32;45189;-79
2022/04/19 07:49:30;;;;;;;;;;;12.90;88.70;;;;;;4420505;32;43710;-79
2022/04/19 07:51:58;;;;;;;;;;;13.00;88.80;;;;;;4418947;32;45553;-80
2022/04/19 07:54:25;;;;;;;;;;;13.00;88.60;;;;;;4419958;32;42650;-79
2022/04/19 07:56:52;;;;;;;;;;;13.00;88.80;;;;;;4420414;32;44803;-79
2022/04/19 07:59:19;;;;;;;;;;;13.00;89.10;;;;;;4420286;32;43862;-79
2022/04/19 08:01:46;;;;;;;;;;;13.00;88.20;;;;;;4420035;32;43846;-79
2022/04/19 08:04:13;;;;;;;;;;;13.00;88.00;;;;;;4418740;32;43905;-79
2022/04/19 08:06:40;;;;;;;;;;;13.00;87.70;;;;;;4418782;32;43215;-79
2022/04/19 08:09:08;;;;;;;;;;;13.10;87.90;;;;;;4419835;32;44246;-78
2022/04/19 08:11:35;;;;;;;;;;;13.10;87.80;;;;;;4420312;32;44543;-79
2022/04/19 08:14:03;;;;;;;;;;;13.10;87.80;;;;;;4419774;32;42661;-79
2022/04/19 08:16:30;;;;;;;;;;;13.10;87.70;;;;;;4420437;32;43104;-79
2022/04/19 08:18:57;;;;;;;;;;;13.10;87.50;;;;;;4419786;32;19992;-78
2022/04/19 08:21:24;;;;;;;;;;;13.10;87.50;;;;;;4420009;32;43781;-79
2022/04/19 08:23:51;;;;;;;;;;;13.10;88.00;;;;;;4418622;32;44716;-78
2022/04/19 08:26:18;;;;;;;;;;;13.20;88.00;;;;;;4419676;32;44489;-79
2022/04/19 08:28:45;;;;;;;;;;;13.10;87.70;;;;;;4418554;32;43297;-79
2022/04/19 08:31:12;;;;;;;;;;;13.20;87.90;;;;;;4420029;32;44196;-79
2022/04/19 08:33:39;;;;;;;;;;;13.20;88.10;;;;;;4421645;32;45131;-79
2022/04/19 08:36:07;;;;;;;;;;;13.20;88.20;;;;;;4423086;32;46008;-79
2022/04/19 08:38:35;;;;;;;;;;;13.20;88.20;;;;;;4422018;32;44122;-79
2022/04/19 08:41:03;;;;;;;;;;;13.20;88.30;;;;;;4422081;32;43363;-79
2022/04/19 08:43:30;;;;;;;;;;;13.30;88.40;;;;;;4422720;32;42815;-80
2022/04/19 08:45:57;;;;;;;;;;;13.30;88.40;;;;;;4422575;32;43694;-79
2022/04/19 08:48:25;;;;;;;;;;;13.30;88.10;;;;;;4423049;32;43484;-79
2022/04/19 08:50:54;;;;;;;;;;;13.30;88.00;;;;;;4423077;32;43873;-79
2022/04/19 08:58:54;;;;;;;;;;;13.40;86.00;;;;;;4422595;32;43800;-79
2022/04/19 09:01:21;;;;;;;;;;;13.40;85.20;;;;;;4421636;32;43885;-79
2022/04/19 09:03:48;;;;;;;;;;;13.40;85.30;;;;;;4422901;32;43213;-79
2022/04/19 09:06:16;;;;;;;;;;;13.40;85.30;;;;;;4421698;32;45576;-79
2022/04/19 09:09:02;;;;;;;;;;;13.40;86.20;;;;;;4422744;32;43473;-79
2022/04/19 09:11:33;;;;;;;;;;;13.40;86.20;;;;;;4422249;32;44017;-78
2022/04/19 09:14:04;;;;;;;;;;;13.40;86.00;;;;;;4421585;32;43905;-78
2022/04/19 09:16:31;;;;;;;;;;;13.40;86.40;;;;;;4421712;32;42853;-79
2022/04/19 09:18:58;;;;;;;;;;;13.50;86.20;;;;;;4421616;32;42928;-79
2022/04/19 09:21:37;;;;;;;;;;;13.50;86.60;;;;;;4422164;32;43062;-79
2022/04/19 09:24:20;;;;;;;;;;;13.50;86.80;;;;;;4422612;32;43987;-78
2022/04/19 09:26:50;;;;;;;;;;;13.50;86.60;;;;;;4422419;32;43073;-79
2022/04/19 09:29:18;;;;;;;;;;;13.50;87.10;;;;;;4422470;32;43768;-79
2022/04/19 09:31:45;;;;;;;;;;;13.50;86.90;;;;;;4421245;32;44940;-79
2022/04/19 09:34:22;;;;;;;;;;;13.60;87.10;;;;;;4420836;32;42760;-79
2022/04/19 09:36:53;;;;;;;;;;;13.60;86.60;;;;;;4422348;32;43422;-78
2022/04/19 09:39:27;;;;;;;;;;;13.60;86.50;;;;;;4422386;32;44362;-79
2022/04/19 09:42:01;;;;;;;;;;;13.60;86.50;;;;;;4422102;32;42765;-79
2022/04/19 09:44:29;;;;;;;;;;;13.60;86.90;;;;;;4420644;32;43860;-79
2022/04/19 09:47:04;;;;;;;;;;;13.60;86.40;;;;;;4420718;32;44685;-79
2022/04/19 09:49:44;;;;;;;;;;;13.60;86.90;;;;;;4421993;32;44588;-79
2022/04/19 09:52:12;;;;;;;;;;;13.60;86.80;;;;;;4421915;32;44618;-79
2022/04/19 09:54:40;;;;;;;;;;;13.70;87.20;;;;;;4422302;32;43142;-80
2022/04/19 09:57:09;;;;;;;;;;;13.60;86.90;;;;;;4422562;32;44092;-79
2022/04/19 09:59:41;;;;;;;;;;;13.70;87.40;;;;;;4420448;32;44093;-79
2022/04/19 10:10:26;;;;;;;;;;;13.70;86.60;;;;;;4421439;32;44858;-79
2022/04/19 10:12:53;;;;;;;;;;;13.70;86.20;;;;;;4420667;32;43469;-79
2022/04/19 10:15:22;;;;;;;;;;;13.80;86.60;;;;;;4421675;32;46095;-79
2022/04/19 10:17:49;;;;;;;;;;;13.80;87.00;;;;;;4420142;32;43552;-78
2022/04/19 10:20:16;;;;;;;;;;;13.80;86.80;;;;;;4421387;32;43919;-79
2022/04/19 10:22:49;;;;;;;;;;;13.80;86.50;;;;;;4420098;32;43815;-79
2022/04/19 10:25:18;;;;;;;;;;;13.80;86.40;;;;;;4420746;32;43244;-78
2022/04/19 10:27:45;;;;;;;;;;;13.90;86.70;;;;;;4420507;32;43125;-78
2022/04/19 10:30:17;;;;;;;;;;;13.90;87.20;;;;;;4420020;32;43505;-79
2022/04/19 10:32:45;;;;;;;;;;;13.90;87.30;;;;;;4420174;32;42929;-79
2022/04/19 10:35:13;;;;;;;;;;;13.90;86.70;;;;;;4420170;32;44052;-79
2022/04/19 10:37:42;;;;;;;;;;;14.00;86.60;;;;;;4421211;32;43389;-78
2022/04/19 10:40:12;;;;;;;;;;;13.90;86.60;;;;;;4420182;32;43462;-79
2022/04/19 10:42:42;;;;;;;;;;;14.00;86.60;;;;;;4421403;32;43536;-79
2022/04/19 10:45:13;;;;;;;;;;;14.00;86.50;;;;;;4420035;32;43475;-78
2022/04/19 10:48:10;;;;;;;;;;;14.00;86.10;;;;;;4421293;32;44743;-78
2022/04/19 10:50:44;;;;;;;;;;;14.00;86.40;;;;;;4414473;32;44872;-78
2022/04/19 10:53:12;;;;;;;;;;;14.00;86.20;;;;;;4420680;32;20404;-78
2022/04/19 10:55:40;;;;;;;;;;;14.10;86.90;;;;;;4421092;32;43247;-78
2022/04/19 10:58:29;;;;;;;;;;;14.10;86.80;;;;;;4420673;32;42662;-78
2022/04/19 11:00:57;;;;;;;;;;;14.10;86.80;;;;;;4421192;32;43291;-78
2022/04/19 11:03:33;;;;;;;;;;;14.10;86.00;;;;;;4420434;32;44507;-78
2022/04/19 11:06:02;;;;;;;;;;;14.10;85.80;;;;;;4420246;32;43383;-79
2022/04/19 11:08:36;;;;;;;;;;;14.10;85.70;;;;;;4420594;32;43526;-79
2022/04/19 11:11:03;;;;;;;;;;;14.10;85.00;;;;;;4419714;32;46096;-78
2022/04/19 11:13:31;;;;;;;;;;;14.10;84.90;;;;;;4419935;32;43856;-78
2022/04/19 11:16:06;;;;;;;;;;;14.20;85.10;;;;;;4420660;32;44081;-78
2022/04/19 11:18:54;;;;;;;;;;;14.20;85.00;;;;;;4421166;32;43591;-78
2022/04/19 11:21:45;;;;;;;;;;;14.20;85.00;;;;;;4419507;32;42761;-78
2022/04/19 11:24:33;;;;;;;;;;;14.20;84.70;;;;;;4420946;32;20000;-78
2022/04/19 11:27:00;;;;;;;;;;;14.20;84.60;;;;;;4419882;32;44184;-78
2022/04/19 11:29:27;;;;;;;;;;;14.30;84.20;;;;;;4419084;32;44079;-79
2022/04/19 11:31:54;;;;;;;;;;;14.30;84.50;;;;;;4420758;32;43939;-79
2022/04/19 11:34:22;;;;;;;;;;;14.40;83.70;;;;;;4420683;32;43932;-78
2022/04/19 11:36:49;;;;;;;;;;;14.30;83.50;;;;;;4420560;32;44122;-78
2022/04/19 11:46:43;;;;;;;;;;;14.40;83.30;;;;;;4419047;32;43393;-78
2022/04/19 11:47:48;;;;;;;;;;;14.40;83.30;;;;;;4420371;32;43814;-78
2022/04/19 11:50:29;;;;;;;;;;;14.40;83.70;;;;;;4420147;32;43419;-78
2022/04/19 11:53:03;;;;;;;;;;;14.50;84.10;;;;;;4419378;32;42411;-78
2022/04/19 11:55:30;;;;;;;;;;;14.50;84.40;;;;;;4419959;32;44514;-78
2022/04/19 11:58:07;;;;;;;;;;;14.50;84.00;;;;;;4420423;32;44191;-79
2022/04/19 12:00:34;;;;;;;;;;;14.60;83.80;;;;;;4419194;32;42590;-78
2022/04/19 12:03:05;;;;;;;;;;;14.60;83.90;;;;;;4420142;32;43836;-78
2022/04/19 12:05:32;;;;;;;;;;;14.60;84.00;;;;;;4420410;32;42573;-78
2022/04/19 12:07:59;;;;;;;;;;;14.60;83.80;;;;;;4419927;32;42671;-78
2022/04/19 12:10:26;;;;;;;;;;;14.60;83.50;;;;;;4418735;32;42806;-78
2022/04/19 12:12:53;;;;;;;;;;;14.60;81.70;;;;;;4418753;32;43856;-78
2022/04/19 12:15:36;;;;;;;;;;;14.70;82.90;;;;;;4418922;32;43015;-78
2022/04/19 12:18:03;;;;;;;;;;;14.70;83.10;;;;;;4420147;32;43271;-78
2022/04/19 12:20:42;;;;;;;;;;;14.70;82.30;;;;;;4419198;32;44400;-78
2022/04/19 12:23:19;;;;;;;;;;;14.80;82.30;;;;;;4419080;32;42975;-78
2022/04/19 12:25:58;;;;;;;;;;;14.80;82.30;;;;;;4420066;32;43458;-78
2022/04/19 12:28:44;;;;;;;;;;;14.80;82.70;;;;;;4418912;32;43345;-79
2022/04/19 12:31:30;;;;;;;;;;;14.90;82.30;;;;;;4419760;32;43294;-79
2022/04/19 12:33:58;;;;;;;;;;;14.90;82.40;;;;;;4420215;32;45057;-79
2022/04/19 12:36:26;;;;;;;;;;;14.90;82.40;;;;;;4419737;32;43454;-78
2022/04/19 12:39:01;;;;;;;;;;;14.90;82.30;;;;;;4419984;32;43926;-78
2022/04/19 12:41:36;;;;;;;;;;;14.90;82.00;;;;;;4419169;32;43873;-78
2022/04/19 12:44:03;;;;;;;;;;;15.00;82.30;;;;;;4418826;32;44033;-78
2022/04/19 12:46:31;;;;;;;;;;;15.00;82.30;;;;;;4419869;32;44001;-78
2022/04/19 12:48:58;;;;;;;;;;;15.00;82.30;;;;;;4418436;32;44808;-78
2022/04/19 12:51:25;;;;;;;;;;;15.10;82.30;;;;;;4418790;32;43383;-78
2022/04/19 12:54:05;;;;;;;;;;;15.10;82.30;;;;;;4419536;32;44582;-78
2022/04/19 12:59:40;;;;;;;;;;;15.10;82.10;;;;;;4419942;32;43328;-79
2022/04/19 13:02:07;;;;;;;;;;;15.20;82.00;;;;;;4419479;32;43712;-78
2022/04/19 13:04:34;;;;;;;;;;;15.20;82.20;;;;;;4419350;32;44282;-79
2022/04/19 13:12:33;;;;;;;;;;;15.30;81.50;;;;;;4419852;32;44097;-78
2022/04/19 13:15:01;;;;;;;;;;;15.30;80.80;;;;;;4418234;32;43786;-79
2022/04/19 13:17:30;;;;;;;;;;;15.30;81.80;;;;;;4418308;32;42956;-78
2022/04/19 13:19:57;;;;;;;;;;;15.40;82.10;;;;;;4421656;32;43463;-78
2022/04/19 13:22:24;;;;;;;;;;;15.40;80.30;;;;;;4420910;32;45158;-79
2022/04/19 13:24:52;;;;;;;;;;;15.40;79.70;;;;;;4422411;32;43550;-78
2022/04/19 13:27:19;;;;;;;;;;;15.50;80.00;;;;;;4421340;32;42732;-78
2022/04/19 13:29:46;;;;;;;;;;;15.60;80.00;;;;;;4422451;32;43818;-79
2022/04/19 13:32:14;;;;;;;;;;;15.60;81.00;;;;;;4422401;32;43181;-78
2022/04/19 13:34:41;;;;;;;;;;;15.70;80.70;;;;;;4421326;32;43852;-78
2022/04/19 13:37:08;;;;;;;;;;;15.70;78.80;;;;;;4421028;32;43007;-78
2022/04/19 13:39:35;;;;;;;;;;;15.70;80.00;;;;;;4422308;32;43798;-78
2022/04/19 13:42:02;;;;;;;;;;;15.70;78.90;;;;;;4421152;32;44234;-79
2022/04/19 13:44:29;;;;;;;;;;;15.80;79.60;;;;;;4420565;32;44111;-79
2022/04/19 13:46:59;;;;;;;;;;;15.80;78.90;;;;;;4420745;32;43784;-79
2022/04/19 13:49:32;;;;;;;;;;;15.80;79.30;;;;;;4422555;32;44227;-78
2022/04/19 13:52:00;;;;;;;;;;;15.80;78.20;;;;;;4422165;32;43862;-78
2022/04/19 13:54:27;;;;;;;;;;;15.90;78.50;;;;;;4422074;32;42757;-78
2022/04/19 13:57:01;;;;;;;;;;;15.90;79.00;;;;;;4422108;32;43178;-79
2022/04/19 13:59:29;;;;;;;;;;;15.90;77.00;;;;;;4420845;32;42679;-78
2022/04/19 14:01:57;;;;;;;;;;;15.90;78.30;;;;;;4421736;32;44449;-79
2022/04/19 14:04:24;;;;;;;;;;;16.00;77.90;;;;;;4421485;32;43943;-79
2022/04/19 14:06:52;;;;;;;;;;;16.00;77.40;;;;;;4421030;32;44031;-79
2022/04/19 14:09:19;;;;;;;;;;;16.00;77.30;;;;;;4420767;32;43938;-79
2022/04/19 14:11:46;;;;;;;;;;;16.00;77.70;;;;;;4421861;32;41927;-79
2022/04/19 14:14:14;;;;;;;;;;;16.10;75.90;;;;;;4420370;32;43347;-78
2022/04/19 14:16:41;;;;;;;;;;;16.10;76.20;;;;;;4420505;32;44108;-78
2022/04/19 14:19:08;;;;;;;;;;;16.20;77.60;;;;;;4420183;32;42578;-78
2022/04/19 14:21:36;;;;;;;;;;;16.20;77.50;;;;;;4420467;32;43255;-78
2022/04/19 14:24:03;;;;;;;;;;;16.20;76.80;;;;;;4421077;32;44332;-79
2022/04/19 14:26:30;;;;;;;;;;;16.20;77.90;;;;;;4420815;32;43974;-78
2022/04/19 14:34:28;;;;;;;;;;;16.30;74.30;;;;;;4421527;32;44161;-78
2022/04/19 14:36:55;;;;;;;;;;;16.30;76.00;;;;;;4421002;32;43192;-78
2022/04/19 14:39:22;;;;;;;;;;;16.30;76.30;;;;;;4421159;32;43398;-79
2022/04/19 14:41:49;;;;;;;;;;;16.30;77.10;;;;;;4421238;32;43836;-78
2022/04/19 14:44:16;;;;;;;;;;;16.40;76.20;;;;;;4420808;32;42797;-79
2022/04/19 14:46:43;;;;;;;;;;;16.40;77.10;;;;;;4421165;32;46005;-78
2022/04/19 14:49:11;;;;;;;;;;;16.40;75.60;;;;;;4419752;32;43008;-78
2022/04/19 14:54:24;;;;;;;;;;;16.40;76.40;;;;;;4421304;32;44263;-79
2022/04/19 14:56:51;;;;;;;;;;;16.50;74.90;;;;;;4421053;32;45543;-78
2022/04/19 14:59:18;;;;;;;;;;;16.50;74.90;;;;;;4420024;32;43096;-79
2022/04/19 15:01:45;;;;;;;;;;;16.50;74.70;;;;;;4420674;32;43950;-79
2022/04/19 15:04:12;;;;;;;;;;;16.60;76.10;;;;;;4419472;32;42570;-79
2022/04/19 15:06:46;;;;;;;;;;;16.60;76.50;;;;;;4420851;32;42391;-79
2022/04/19 15:09:13;;;;;;;;;;;16.60;75.00;;;;;;4420853;32;45084;-78
2022/04/19 15:11:44;;;;;;;;;;;16.60;76.30;;;;;;4419397;32;43447;-78
2022/04/19 15:14:12;;;;;;;;;;;16.60;76.30;;;;;;4419299;32;43762;-78
2022/04/19 15:16:39;;;;;;;;;;;16.60;74.60;;;;;;4419448;32;42194;-78
2022/04/19 15:19:06;;;;;;;;;;;16.60;75.00;;;;;;4407291;32;43195;-78
2022/04/19 15:21:34;;;;;;;;;;;16.70;75.60;;;;;;4419557;32;42780;-78
2022/04/19 15:24:01;;;;;;;;;;;16.70;74.70;;;;;;4420796;32;43242;-78